Ana Sayfa
METAR-TAF:

METAR-TAF

Havaalanları :

Aransas County Airport

Rockport, Teksas, Amerika Birleşik Devletleri

Enlem: 28-05-01N, Boylam: 097-02-47W, yükseklik: 7 m

Güncel hava durumu gözlemi

Rapor saat 09:18 UTC de 15 dakika önce yapıldı.
Rüzgar doğudan 17 kt ve 27 kt'a kadar ani rüzgarlar
Sıcaklık 22°C
Nem 78%
Basınç 1004 hPa
Görüş mesafesi: 16.1 km
6500 ft yükseklikte az bulutlu
8500 ft yükseklikte az bulutlu
11000 ft yükseklikte parçalı çok bulutlu

METAR: KRKP 250918Z AUTO 10017G27KT 10SM FEW065 FEW085 BKN110 22/18 A2965 RMK AO2 PK WND 10029/0857 LTG DSNT E RAE10 TSB0857E12 P0000 T02220178

Saat: 04:33 (09:33 UTC)


TAF: eksik

4.000'den fazla havaalanı için hava durumu gözlemleri ve tahminleri (METAR ve TAF raporları).

Kullanılabilir istasyonlar harita üzerinde sarı ve kırmızı noktalarla gösterilir.

İstasyonun adını görmek için fareyi noktanın üzerinde gezdirin.

Sonrasında hava gözlem ve tahminlerini görmek için tıklayın.

Haritayı değiştirmek için: yaklaştırmak için siyah artı işaretli yeşil düğmeye ve uzaklaştırmak için de eksi işaretli düğmeye hızla tıklayın; bitişik haritalar için yeşil okları kullanın.


METAR-TAF: